Time;durP1;ratioP1;P1;durP2;ratioP2;P2;SDS_P1;SDS_P2;PMS_P1;PMS_P2;Temp;Humidity;BMP_temperature;BMP_pressure;BME280_temperature;BME280_humidity;BME280_pressure;Samples;Min_cycle;Max_cycle;Signal;HPM_P1;HPM_P2
2024/01/14 00:01:58;;;;;;;59.67;29.35;;;4.80;99.90;;;;;;5111989;28;20030;-78
2024/01/14 00:04:24;;;;;;;55.33;26.30;;;4.90;99.90;;;;;;5110504;28;20024;-78
2024/01/14 00:06:50;;;;;;;59.80;27.35;;;4.80;99.90;;;;;;5091268;28;20015;-78
2024/01/14 00:09:17;;;;;;;53.38;27.58;;;4.90;99.90;;;;;;5110163;28;20022;-78
2024/01/14 00:11:43;;;;;;;53.20;26.80;;;4.80;99.90;;;;;;5113775;28;20027;-78
2024/01/14 00:14:09;;;;;;;58.65;25.85;;;4.80;99.90;;;;;;5114504;28;20100;-78
2024/01/14 00:16:34;;;;;;;53.72;26.95;;;4.80;99.90;;;;;;5113829;28;20453;-78
2024/01/14 00:19:05;;;;;;;51.28;27.15;;;4.80;99.90;;;;;;5114519;28;20045;-78
2024/01/14 00:21:31;;;;;;;51.63;25.05;;;4.70;99.90;;;;;;5095580;28;20019;-78
2024/01/14 00:23:57;;;;;;;46.85;23.48;;;4.80;99.90;;;;;;5113521;28;20095;-78
2024/01/14 00:26:25;;;;;;;41.65;22.83;;;4.60;99.90;;;;;;5114778;28;20433;-78
2024/01/14 00:28:58;;;;;;;41.63;21.77;;;4.80;99.90;;;;;;5113438;28;20024;-78
2024/01/14 00:31:24;;;;;;;40.15;20.85;;;4.80;99.90;;;;;;5114380;28;20038;-78
2024/01/14 00:33:51;;;;;;;41.45;20.98;;;4.70;99.90;;;;;;5113492;28;20035;-78
2024/01/14 00:36:20;;;;;;;43.05;22.08;;;4.80;99.90;;;;;;5114488;28;20162;-78
2024/01/14 00:38:45;;;;;;;40.90;21.15;;;4.80;99.90;;;;;;5095706;28;20102;-78
2024/01/14 00:41:12;;;;;;;46.60;23.45;;;4.70;99.90;;;;;;5113712;28;20094;-78
2024/01/14 00:43:37;;;;;;;44.15;22.35;;;4.70;99.90;;;;;;5113872;28;20095;-78
2024/01/14 00:46:03;;;;;;;40.53;21.65;;;4.70;99.90;;;;;;5113822;28;20023;-78
2024/01/14 00:48:30;;;;;;;41.85;22.10;;;4.70;99.90;;;;;;5095565;28;20055;-78
2024/01/14 00:50:56;;;;;;;39.35;21.42;;;4.70;99.90;;;;;;5095222;28;20098;-78
2024/01/14 00:53:22;;;;;;;38.45;21.38;;;4.80;99.90;;;;;;5113887;28;20480;-79
2024/01/14 00:55:48;;;;;;;40.60;21.15;;;4.80;99.90;;;;;;5113323;28;20051;-78
2024/01/14 00:58:14;;;;;;;36.17;19.50;;;4.60;99.90;;;;;;5113420;28;20469;-78
2024/01/14 01:00:40;;;;;;;37.33;19.10;;;4.80;99.90;;;;;;5113381;28;20023;-78
2024/01/14 01:03:06;;;;;;;35.55;18.50;;;4.60;99.90;;;;;;5078528;28;20031;-78
2024/01/14 01:05:32;;;;;;;32.63;18.80;;;4.70;99.90;;;;;;5113545;28;20035;-78
2024/01/14 01:07:58;;;;;;;34.00;17.65;;;4.60;99.90;;;;;;5112966;28;20015;-78
2024/01/14 01:10:24;;;;;;;29.52;16.58;;;4.70;99.90;;;;;;5095253;28;20043;-78
2024/01/14 01:12:49;;;;;;;26.17;14.57;;;4.70;99.90;;;;;;5112264;28;20027;-78
2024/01/14 01:15:15;;;;;;;28.08;15.00;;;4.80;99.90;;;;;;5113143;28;20022;-78
2024/01/14 01:17:41;;;;;;;29.55;16.17;;;4.70;99.90;;;;;;5112677;28;20456;-78
2024/01/14 01:20:08;;;;;;;25.13;15.27;;;4.70;99.90;;;;;;5113737;28;20431;-78
2024/01/14 01:22:34;;;;;;;26.92;14.63;;;4.70;99.90;;;;;;5111869;28;20029;-78
2024/01/14 01:25:00;;;;;;;29.42;15.40;;;4.70;99.90;;;;;;5113100;28;20464;-78
2024/01/14 01:27:27;;;;;;;29.30;15.82;;;4.70;99.90;;;;;;5112890;28;20451;-78
2024/01/14 01:29:53;;;;;;;25.98;15.00;;;4.60;99.90;;;;;;5112583;28;20063;-78
2024/01/14 01:32:18;;;;;;;25.73;14.55;;;4.60;99.90;;;;;;5113315;28;20028;-78
2024/01/14 01:34:45;;;;;;;21.33;13.05;;;4.60;99.90;;;;;;5112786;28;20084;-78
2024/01/14 01:37:10;;;;;;;24.27;13.05;;;4.60;99.90;;;;;;5113214;28;20095;-78
2024/01/14 01:39:36;;;;;;;21.52;12.85;;;4.60;99.90;;;;;;5112822;28;20103;-78
2024/01/14 01:42:02;;;;;;;30.20;14.70;;;4.60;99.90;;;;;;5112686;28;20024;-78
2024/01/14 01:44:28;;;;;;;23.52;13.57;;;4.60;99.90;;;;;;5112426;28;20178;-77
2024/01/14 01:46:54;;;;;;;26.08;14.82;;;4.60;99.90;;;;;;5112485;28;20095;-77
2024/01/14 01:49:21;;;;;;;27.98;15.60;;;4.70;99.90;;;;;;5112738;28;20106;-77
2024/01/14 01:51:48;;;;;;;28.30;15.43;;;4.60;99.90;;;;;;5094205;28;20456;-77
2024/01/14 01:54:18;;;;;;;25.40;14.90;;;4.60;99.90;;;;;;5112985;28;20058;-77
2024/01/14 01:56:44;;;;;;;30.45;15.95;;;4.70;99.90;;;;;;5112082;28;20309;-77
2024/01/14 01:59:11;;;;;;;33.08;16.77;;;4.60;99.90;;;;;;5112604;28;20035;-77
2024/01/14 02:01:37;;;;;;;28.90;16.42;;;4.60;99.90;;;;;;5112666;28;20080;-77
2024/01/14 02:04:07;;;;;;;25.48;15.38;;;4.50;99.90;;;;;;5112517;28;20030;-77
2024/01/14 02:06:33;;;;;;;27.63;14.57;;;4.60;99.90;;;;;;5113200;28;20088;-77
2024/01/14 02:08:59;;;;;;;21.95;12.80;;;4.50;99.90;;;;;;5094103;28;20039;-78
2024/01/14 02:11:25;;;;;;;24.58;12.88;;;4.60;99.90;;;;;;5113186;28;20034;-78
2024/01/14 02:13:51;;;;;;;19.92;11.95;;;4.60;99.90;;;;;;5112208;28;20040;-78
2024/01/14 02:16:20;;;;;;;22.83;12.35;;;4.50;99.90;;;;;;5112963;28;20020;-77
2024/01/14 02:18:46;;;;;;;25.67;13.75;;;4.50;99.90;;;;;;5112199;28;20043;-78
2024/01/14 02:21:21;;;;;;;24.60;13.25;;;4.60;99.90;;;;;;5112906;28;20020;-78
2024/01/14 02:24:04;;;;;;;21.45;12.23;;;4.60;99.90;;;;;;5113027;28;20058;-78
2024/01/14 02:26:30;;;;;;;26.08;13.20;;;4.50;99.90;;;;;;5113121;28;20072;-78
2024/01/14 02:28:56;;;;;;;21.05;13.18;;;4.60;99.90;;;;;;5112897;28;20325;-78
2024/01/14 02:31:22;;;;;;;25.65;14.70;;;4.50;99.90;;;;;;5113339;28;20421;-78
2024/01/14 02:33:48;;;;;;;25.98;14.38;;;4.60;99.90;;;;;;5112168;28;20034;-78
2024/01/14 02:36:13;;;;;;;26.33;15.25;;;4.50;99.90;;;;;;5112776;28;20020;-77
2024/01/14 02:38:39;;;;;;;27.48;16.15;;;4.50;99.90;;;;;;5112432;28;20072;-78
2024/01/14 02:41:05;;;;;;;23.45;14.98;;;4.50;99.90;;;;;;5111959;28;20024;-78
2024/01/14 02:43:30;;;;;;;26.25;14.95;;;4.50;99.90;;;;;;5112361;28;20024;-79
2024/01/14 02:45:56;;;;;;;22.98;14.07;;;4.50;99.90;;;;;;5093262;28;20046;-78
2024/01/14 02:48:22;;;;;;;20.35;12.50;;;4.50;99.90;;;;;;5112267;28;20016;-78
2024/01/14 02:50:47;;;;;;;21.90;12.02;;;4.50;99.90;;;;;;5111649;28;20020;-78
2024/01/14 02:53:13;;;;;;;20.95;12.13;;;4.50;99.90;;;;;;5112369;28;20034;-78
2024/01/14 02:55:39;;;;;;;20.75;12.45;;;4.50;99.90;;;;;;5093251;28;20077;-78
2024/01/14 02:58:04;;;;;;;20.92;11.77;;;4.50;99.90;;;;;;5111590;28;20130;-78
2024/01/14 03:00:30;;;;;;;22.48;12.40;;;4.60;99.90;;;;;;5112230;28;20026;-78
2024/01/14 03:02:56;;;;;;;20.90;12.73;;;4.60;99.90;;;;;;5111467;28;20566;-78
2024/01/14 03:05:21;;;;;;;21.30;12.48;;;4.50;99.90;;;;;;5111620;28;20023;-76
2024/01/14 03:07:48;;;;;;;18.00;11.05;;;4.50;99.90;;;;;;5111218;28;20051;-78
2024/01/14 03:10:13;;;;;;;19.65;11.82;;;4.60;99.90;;;;;;5111936;28;20020;-78
2024/01/14 03:12:39;;;;;;;21.02;11.77;;;4.50;99.90;;;;;;5111972;28;20096;-78
2024/01/14 03:15:05;;;;;;;22.30;12.73;;;4.50;99.90;;;;;;5111424;28;20031;-78
2024/01/14 03:17:31;;;;;;;18.95;11.10;;;4.50;99.90;;;;;;5093450;28;20019;-79
2024/01/14 03:19:57;;;;;;;20.40;12.43;;;4.50;99.90;;;;;;5111106;28;20031;-80
2024/01/14 03:22:22;;;;;;;17.13;10.43;;;4.50;99.90;;;;;;5111724;28;20098;-79
2024/01/14 03:24:48;;;;;;;16.70;11.23;;;4.50;99.90;;;;;;5111227;28;20058;-79
2024/01/14 03:27:14;;;;;;;18.27;10.45;;;4.50;99.90;;;;;;5111867;28;20363;-79
2024/01/14 03:29:39;;;;;;;20.55;10.80;;;4.50;99.90;;;;;;5111698;28;20025;-79
2024/01/14 03:32:05;;;;;;;18.40;10.90;;;4.40;99.90;;;;;;5111254;28;20028;-79
2024/01/14 03:34:31;;;;;;;19.23;11.75;;;4.30;99.90;;;;;;5111447;28;20107;-79
2024/01/14 03:36:57;;;;;;;20.65;11.07;;;4.40;99.90;;;;;;5123551;27;20368;-79
2024/01/14 03:39:23;;;;;;;21.60;10.43;;;4.30;99.90;;;;;;5131576;27;20385;-79
2024/01/14 03:41:49;;;;;;;19.75;11.40;;;4.30;99.90;;;;;;5112721;27;20178;-79
2024/01/14 03:44:14;;;;;;;20.50;11.55;;;4.20;99.90;;;;;;5112997;27;20034;-79
2024/01/14 03:46:40;;;;;;;20.98;12.02;;;4.10;99.90;;;;;;5112956;27;20026;-79
2024/01/14 03:49:06;;;;;;;17.95;10.48;;;4.10;99.90;;;;;;5131491;27;20185;-79
2024/01/14 03:51:32;;;;;;;21.90;11.93;;;4.10;99.90;;;;;;5113108;27;20019;-79
2024/01/14 03:53:58;;;;;;;18.73;10.48;;;4.00;99.90;;;;;;5131110;27;20481;-79
2024/01/14 03:56:24;;;;;;;20.30;11.10;;;3.90;99.90;;;;;;5113436;27;20019;-79
2024/01/14 03:58:49;;;;;;;18.75;11.05;;;3.90;99.90;;;;;;5131367;27;20474;-79
2024/01/14 04:01:17;;;;;;;20.52;10.65;;;3.80;99.90;;;;;;5131884;27;20023;-79
2024/01/14 04:03:43;;;;;;;22.10;11.27;;;3.80;99.90;;;;;;5131710;27;20066;-79
2024/01/14 04:06:09;;;;;;;19.50;10.73;;;3.70;99.90;;;;;;5131400;27;20078;-79
2024/01/14 04:08:34;;;;;;;20.73;11.73;;;3.80;99.90;;;;;;5132182;28;20095;-79
2024/01/14 04:11:00;;;;;;;22.77;12.48;;;3.60;99.90;;;;;;5130904;28;20044;-79
2024/01/14 04:13:26;;;;;;;21.52;11.93;;;3.60;99.90;;;;;;5131480;28;20441;-79
2024/01/14 04:15:55;;;;;;;21.83;12.30;;;3.60;99.90;;;;;;5131039;28;20023;-79
2024/01/14 04:18:21;;;;;;;22.38;12.27;;;3.70;99.90;;;;;;5131762;28;20058;-79
2024/01/14 04:20:46;;;;;;;20.27;11.85;;;3.60;99.90;;;;;;5131564;28;20074;-79
2024/01/14 04:23:12;;;;;;;22.77;12.18;;;3.60;99.90;;;;;;5131678;28;20030;-79
2024/01/14 04:25:38;;;;;;;22.02;12.27;;;3.60;99.90;;;;;;5131522;28;20050;-79
2024/01/14 04:28:04;;;;;;;22.25;12.98;;;3.70;99.90;;;;;;5130774;28;20163;-79
2024/01/14 04:30:29;;;;;;;20.55;12.27;;;3.70;99.90;;;;;;5131328;28;20023;-79
2024/01/14 04:32:55;;;;;;;21.88;12.88;;;3.70;99.90;;;;;;5130814;28;20026;-79
2024/01/14 04:35:21;;;;;;;25.52;13.73;;;3.70;99.90;;;;;;5131413;28;20022;-79
2024/01/14 04:37:47;;;;;;;24.55;13.05;;;3.80;99.90;;;;;;5131265;28;20019;-79
2024/01/14 04:40:12;;;;;;;23.42;12.95;;;3.80;99.90;;;;;;5131509;28;20023;-79
2024/01/14 04:42:38;;;;;;;25.05;13.10;;;3.70;99.90;;;;;;5112733;28;20455;-79
2024/01/14 04:45:04;;;;;;;18.23;11.40;;;3.80;99.90;;;;;;5130602;28;20027;-79
2024/01/14 04:47:30;;;;;;;22.55;11.25;;;3.80;99.90;;;;;;5131658;28;20348;-79
2024/01/14 04:49:56;;;;;;;21.63;11.80;;;3.90;99.90;;;;;;5112281;28;20020;-79
2024/01/14 04:52:21;;;;;;;18.38;11.52;;;3.80;99.90;;;;;;5131732;28;20075;-79
2024/01/14 04:54:47;;;;;;;19.77;10.82;;;3.80;99.90;;;;;;5131027;28;20039;-79
2024/01/14 04:57:13;;;;;;;17.85;9.95;;;3.80;99.90;;;;;;5133499;27;20124;-79
2024/01/14 04:59:38;;;;;;;18.80;10.23;;;3.80;99.90;;;;;;5135273;27;20019;-79
2024/01/14 05:02:04;;;;;;;19.27;10.30;;;3.80;99.90;;;;;;5134885;27;20031;-79
2024/01/14 05:04:30;;;;;;;16.25;9.50;;;3.90;99.90;;;;;;5135064;27;20023;-79
2024/01/14 05:06:55;;;;;;;16.75;8.43;;;3.90;99.90;;;;;;5134376;27;20050;-79
2024/01/14 05:09:22;;;;;;;20.05;9.65;;;4.00;99.90;;;;;;5135145;27;20031;-79
2024/01/14 05:11:47;;;;;;;17.25;8.50;;;3.90;99.90;;;;;;5134782;27;20213;-79
2024/01/14 05:14:13;;;;;;;15.55;9.07;;;4.00;99.90;;;;;;5116124;27;20488;-79
2024/01/14 05:16:39;;;;;;;18.15;9.93;;;4.00;99.90;;;;;;5115891;27;20052;-79
2024/01/14 05:19:05;;;;;;;16.42;9.80;;;4.00;99.90;;;;;;5134184;27;20343;-79
2024/01/14 05:21:30;;;;;;;18.92;9.25;;;4.10;99.90;;;;;;5134497;27;20478;-79
2024/01/14 05:23:56;;;;;;;13.20;8.55;;;4.10;99.90;;;;;;5134284;27;20027;-79
2024/01/14 05:26:24;;;;;;;17.05;9.23;;;4.10;99.90;;;;;;5134684;27;20535;-79
2024/01/14 05:28:50;;;;;;;13.85;9.07;;;4.20;99.90;;;;;;5134692;27;20022;-79
2024/01/14 05:31:16;;;;;;;13.85;8.20;;;4.00;99.90;;;;;;5134700;27;20023;-79
2024/01/14 05:33:42;;;;;;;13.82;8.23;;;4.20;99.90;;;;;;5135256;27;20027;-79
2024/01/14 05:36:08;;;;;;;14.75;8.43;;;4.10;99.90;;;;;;5134424;27;20046;-79
2024/01/14 05:38:33;;;;;;;14.23;8.45;;;4.10;99.90;;;;;;5135109;27;20051;-79
2024/01/14 05:40:59;;;;;;;15.35;8.73;;;4.00;99.90;;;;;;5133851;27;20092;-79
2024/01/14 05:43:25;;;;;;;14.30;9.05;;;4.20;99.90;;;;;;5134365;27;20109;-79
2024/01/14 05:45:50;;;;;;;16.48;10.27;;;4.10;99.90;;;;;;5133835;27;20023;-79
2024/01/14 05:48:17;;;;;;;15.32;9.27;;;4.10;99.90;;;;;;5115525;27;20015;-79
2024/01/14 05:50:43;;;;;;;16.25;10.02;;;4.10;99.90;;;;;;5133801;27;20019;-79
2024/01/14 05:53:09;;;;;;;14.43;9.32;;;4.00;99.90;;;;;;5134029;27;20019;-79
2024/01/14 05:55:34;;;;;;;12.55;9.00;;;4.10;99.90;;;;;;5134082;27;20477;-79
2024/01/14 05:58:00;;;;;;;14.75;9.00;;;4.00;99.90;;;;;;5133118;27;20054;-79
2024/01/14 06:00:26;;;;;;;14.43;9.52;;;4.00;99.90;;;;;;5133735;27;20015;-79
2024/01/14 06:02:51;;;;;;;14.25;9.75;;;3.90;99.90;;;;;;5133726;27;20439;-79
2024/01/14 06:05:17;;;;;;;14.85;9.30;;;3.90;99.90;;;;;;5133654;27;20374;-79
2024/01/14 06:07:43;;;;;;;12.45;8.02;;;3.80;99.90;;;;;;5133070;27;20019;-79
2024/01/14 06:10:09;;;;;;;13.77;8.18;;;3.80;99.90;;;;;;5133175;27;20336;-79
2024/01/14 06:12:35;;;;;;;11.55;8.25;;;3.70;99.90;;;;;;5133721;27;20102;-79
2024/01/14 06:15:01;;;;;;;12.07;6.95;;;3.70;99.90;;;;;;5133208;27;20031;-79
2024/01/14 06:17:26;;;;;;;12.35;6.70;;;3.70;99.90;;;;;;5133223;27;20015;-79
2024/01/14 06:19:52;;;;;;;11.35;7.35;;;3.60;99.90;;;;;;5133866;27;20030;-79
2024/01/14 06:22:18;;;;;;;12.07;7.25;;;3.60;99.90;;;;;;5114787;27;20080;-79
2024/01/14 06:24:46;;;;;;;11.63;6.53;;;3.40;99.90;;;;;;5134095;27;20030;-79
2024/01/14 06:27:12;;;;;;;11.13;6.50;;;3.30;99.90;;;;;;5114428;27;20023;-79
2024/01/14 06:29:40;;;;;;;10.82;6.35;;;3.30;99.90;;;;;;5133555;27;20353;-79
2024/01/14 06:32:05;;;;;;;16.60;7.32;;;3.30;99.90;;;;;;5132952;27;20095;-79
2024/01/14 06:34:31;;;;;;;10.05;5.68;;;3.10;99.90;;;;;;5114923;27;20397;-79
2024/01/14 06:36:58;;;;;;;13.85;7.05;;;3.10;99.90;;;;;;5133035;27;20023;-79
2024/01/14 06:39:24;;;;;;;11.23;6.40;;;3.00;99.90;;;;;;5114844;27;20356;-79
2024/01/14 06:41:51;;;;;;;12.65;7.13;;;3.10;99.90;;;;;;5133614;27;20019;-79
2024/01/14 06:44:17;;;;;;;14.75;7.40;;;3.00;99.90;;;;;;5132804;27;20034;-79
2024/01/14 06:46:43;;;;;;;12.45;7.68;;;2.90;99.90;;;;;;5133402;27;20394;-79
2024/01/14 06:49:09;;;;;;;12.02;6.85;;;2.90;99.90;;;;;;5132497;27;20097;-79
2024/01/14 06:51:45;;;;;;;13.23;7.45;;;2.90;99.90;;;;;;5133084;27;20033;-79
2024/01/14 06:54:10;;;;;;;13.15;7.15;;;2.90;99.90;;;;;;5118632;27;20027;-79
2024/01/14 06:56:47;;;;;;;10.75;7.13;;;2.80;99.90;;;;;;5094179;28;20019;-79
2024/01/14 06:59:23;;;;;;;10.88;7.28;;;2.70;99.90;;;;;;5093288;28;20145;-79
2024/01/14 07:01:49;;;;;;;16.55;7.95;;;2.70;99.90;;;;;;5112537;28;20417;-79
2024/01/14 07:04:15;;;;;;;14.40;6.80;;;2.70;99.90;;;;;;5104204;27;20042;-79
2024/01/14 07:06:41;;;;;;;11.45;7.32;;;2.70;99.90;;;;;;5132804;27;20023;-79
2024/01/14 07:09:08;;;;;;;13.40;7.82;;;2.70;99.90;;;;;;5131951;27;20110;-79
2024/01/14 07:11:34;;;;;;;14.18;7.95;;;2.60;99.90;;;;;;5132663;27;20092;-79
2024/01/14 07:14:01;;;;;;;12.15;7.20;;;2.60;99.90;;;;;;5131886;27;20031;-79
2024/01/14 07:16:26;;;;;;;15.32;7.85;;;2.60;99.90;;;;;;5132196;27;20364;-79
2024/01/14 07:18:52;;;;;;;15.88;8.48;;;2.40;99.90;;;;;;5132123;27;20108;-79
2024/01/14 07:21:23;;;;;;;17.83;8.75;;;2.50;99.90;;;;;;5130926;27;20073;-79
2024/01/14 07:23:49;;;;;;;16.92;9.88;;;2.50;99.90;;;;;;5113735;27;20486;-79
2024/01/14 07:26:16;;;;;;;16.63;9.88;;;2.50;99.90;;;;;;5131406;27;20023;-79
2024/01/14 07:28:42;;;;;;;14.73;10.27;;;2.40;99.90;;;;;;5132207;27;20023;-79
2024/01/14 07:31:08;;;;;;;19.23;10.10;;;2.30;99.90;;;;;;5131946;27;20033;-79
2024/01/14 07:33:34;;;;;;;19.95;10.55;;;2.30;99.90;;;;;;5131962;27;20033;-79
2024/01/14 07:35:59;;;;;;;18.25;10.55;;;2.50;99.90;;;;;;5131723;27;20012;-79
2024/01/14 07:38:25;;;;;;;17.30;11.25;;;2.40;99.90;;;;;;5132099;27;20023;-79
2024/01/14 07:40:51;;;;;;;17.80;11.27;;;2.30;99.90;;;;;;5131975;27;20026;-79
2024/01/14 07:43:17;;;;;;;16.30;9.85;;;2.30;99.90;;;;;;5130725;27;20031;-79
2024/01/14 07:45:42;;;;;;;17.02;10.75;;;2.30;99.90;;;;;;5132002;27;20462;-78
2024/01/14 07:48:08;;;;;;;17.20;10.82;;;2.30;99.90;;;;;;5113079;27;20011;-79
2024/01/14 07:50:34;;;;;;;15.23;9.32;;;2.10;99.90;;;;;;5131936;27;20019;-78
2024/01/14 07:53:00;;;;;;;13.80;9.32;;;2.20;99.90;;;;;;5118375;27;20313;-78
2024/01/14 07:55:25;;;;;;;12.80;8.63;;;2.20;99.90;;;;;;5111346;28;20055;-79
2024/01/14 07:57:51;;;;;;;16.63;10.02;;;2.20;99.90;;;;;;5111103;28;20349;-78
2024/01/14 08:00:17;;;;;;;11.48;6.97;;;2.10;99.90;;;;;;5110597;28;20020;-78
2024/01/14 08:02:43;;;;;;;12.95;7.70;;;2.10;99.90;;;;;;5111510;28;20028;-79
2024/01/14 08:05:09;;;;;;;16.83;7.03;;;2.20;99.90;;;;;;5110687;28;20035;-78
2024/01/14 08:07:35;;;;;;;13.77;7.88;;;2.20;99.90;;;;;;5114386;27;20076;-78
2024/01/14 08:10:01;;;;;;;12.57;7.40;;;2.20;99.90;;;;;;5131567;28;20350;-78
2024/01/14 08:12:27;;;;;;;12.93;7.47;;;2.10;99.90;;;;;;5131760;28;20030;-78
2024/01/14 08:14:53;;;;;;;12.40;7.80;;;2.10;99.90;;;;;;5131576;28;20384;-79
2024/01/14 08:17:19;;;;;;;13.85;7.85;;;2.10;99.90;;;;;;5112361;28;20027;-78
2024/01/14 08:19:45;;;;;;;12.45;7.22;;;2.00;99.90;;;;;;5131521;28;20022;-78
2024/01/14 08:22:11;;;;;;;14.43;7.90;;;2.10;99.90;;;;;;5112465;28;20019;-78
2024/01/14 08:24:41;;;;;;;13.40;7.15;;;2.10;99.90;;;;;;5131438;28;20091;-78
2024/01/14 08:27:07;;;;;;;14.75;7.90;;;2.10;99.90;;;;;;5130981;28;20456;-78
2024/01/14 08:29:32;;;;;;;17.35;7.85;;;2.00;99.90;;;;;;5130591;28;20042;-78
2024/01/14 08:31:58;;;;;;;15.45;8.02;;;2.00;99.90;;;;;;5122147;27;20287;-78
2024/01/14 08:34:24;;;;;;;12.45;7.97;;;2.10;99.90;;;;;;5126251;27;20093;-78
2024/01/14 08:36:49;;;;;;;16.58;7.97;;;2.10;99.90;;;;;;5135608;27;20072;-77
2024/01/14 08:39:15;;;;;;;16.17;8.65;;;2.10;99.90;;;;;;5116775;27;20069;-77
2024/01/14 08:41:41;;;;;;;11.68;7.60;;;2.10;99.90;;;;;;5135652;27;20023;-77
2024/01/14 08:44:10;;;;;;;12.50;6.93;;;2.20;99.90;;;;;;5134802;27;20053;-78
2024/01/14 08:46:44;;;;;;;12.27;8.13;;;2.30;99.90;;;;;;5135896;27;20401;-77
2024/01/14 08:49:09;;;;;;;12.35;8.00;;;2.20;99.90;;;;;;5134709;27;20110;-78
2024/01/14 08:51:35;;;;;;;12.35;7.32;;;2.40;99.90;;;;;;5136143;27;20058;-77
2024/01/14 08:54:01;;;;;;;17.02;8.77;;;2.40;99.90;;;;;;5116751;27;20043;-77
2024/01/14 08:56:29;;;;;;;13.70;8.52;;;2.30;99.90;;;;;;5134238;27;20030;-78
2024/01/14 08:58:56;;;;;;;18.23;9.32;;;2.40;99.90;;;;;;5135208;27;20476;-78
2024/01/14 09:01:22;;;;;;;13.85;9.32;;;2.20;99.90;;;;;;5134477;27;20467;-78
2024/01/14 09:03:48;;;;;;;14.25;10.60;;;2.20;99.90;;;;;;5135265;27;20110;-78
2024/01/14 09:06:14;;;;;;;15.50;11.23;;;2.30;99.90;;;;;;5115929;27;20186;-78
2024/01/14 09:08:40;;;;;;;17.98;12.63;;;2.30;99.90;;;;;;5134947;27;20031;-78
2024/01/14 09:11:07;;;;;;;15.18;11.07;;;2.20;99.90;;;;;;5134226;27;20019;-78
2024/01/14 09:13:32;;;;;;;16.40;10.32;;;2.10;99.90;;;;;;5134516;27;20027;-77
2024/01/14 09:15:58;;;;;;;13.73;9.85;;;2.20;99.90;;;;;;5135020;27;20020;-78
2024/01/14 09:18:24;;;;;;;13.95;8.73;;;2.30;99.90;;;;;;5134040;27;20031;-78
2024/01/14 09:20:50;;;;;;;13.65;8.13;;;2.20;99.90;;;;;;5134418;27;20019;-78
2024/01/14 09:23:16;;;;;;;13.27;8.07;;;2.40;99.90;;;;;;5133977;27;20068;-77
2024/01/14 09:25:42;;;;;;;16.73;8.43;;;2.30;99.90;;;;;;5134756;27;20023;-78
2024/01/14 09:28:07;;;;;;;13.73;8.48;;;2.50;99.90;;;;;;5134407;27;20026;-78
2024/01/14 09:30:33;;;;;;;12.35;7.45;;;2.50;99.90;;;;;;5134355;27;20015;-78
2024/01/14 09:33:00;;;;;;;11.90;7.20;;;2.40;99.90;;;;;;5134501;27;20027;-77
2024/01/14 09:35:25;;;;;;;12.32;7.15;;;2.40;99.90;;;;;;5133767;27;20039;-78
2024/01/14 09:37:51;;;;;;;12.52;7.63;;;2.60;99.90;;;;;;5134148;27;20386;-78
2024/01/14 09:40:17;;;;;;;13.38;7.68;;;2.50;99.90;;;;;;5115070;27;20469;-78
2024/01/14 09:42:47;;;;;;;15.32;9.32;;;2.80;99.90;;;;;;5133348;27;20051;-78
2024/01/14 09:45:13;;;;;;;13.88;8.15;;;2.70;99.90;;;;;;5133586;27;20019;-78
2024/01/14 09:47:41;;;;;;;12.90;7.47;;;2.80;99.90;;;;;;5133964;27;20019;-78
2024/01/14 09:50:08;;;;;;;14.93;8.30;;;2.90;99.90;;;;;;5133893;27;20043;-78
2024/01/14 09:52:34;;;;;;;13.77;8.13;;;2.90;99.90;;;;;;5133980;27;20021;-78
2024/01/14 09:55:00;;;;;;;10.85;7.38;;;2.90;99.90;;;;;;5133953;27;20430;-78
2024/01/14 09:57:29;;;;;;;11.90;7.63;;;3.00;99.90;;;;;;5133193;27;20115;-78
2024/01/14 09:59:56;;;;;;;11.38;7.47;;;3.00;99.90;;;;;;5133644;27;20104;-78
2024/01/14 10:02:22;;;;;;;10.15;7.55;;;3.00;99.90;;;;;;5132957;27;20042;-79
2024/01/14 10:04:48;;;;;;;12.57;8.15;;;3.00;99.90;;;;;;5133974;27;20063;-78
2024/01/14 10:07:14;;;;;;;13.20;8.65;;;3.00;99.90;;;;;;5133016;27;20363;-78
2024/01/14 10:09:43;;;;;;;12.38;7.10;;;3.00;99.90;;;;;;5133745;27;20026;-78
2024/01/14 10:12:09;;;;;;;10.15;5.90;;;3.20;99.90;;;;;;5133097;27;20023;-77
2024/01/14 10:14:36;;;;;;;10.60;6.30;;;3.20;99.90;;;;;;5133525;27;20113;-77
2024/01/14 10:17:02;;;;;;;10.88;5.97;;;3.20;99.90;;;;;;5134694;27;20041;-79
2024/01/14 10:19:29;;;;;;;9.60;5.63;;;3.20;99.90;;;;;;5138066;27;20025;-78
2024/01/14 10:21:56;;;;;;;11.23;6.25;;;3.20;99.90;;;;;;5148888;27;20056;-78
2024/01/14 10:24:22;;;;;;;11.98;7.70;;;3.20;99.90;;;;;;5124465;27;20404;-77
2024/01/14 10:26:55;;;;;;;15.20;7.85;;;3.30;99.90;;;;;;5120927;27;20034;-77
2024/01/14 10:29:21;;;;;;;11.27;7.30;;;3.40;99.90;;;;;;5115615;27;20484;-78
2024/01/14 10:31:50;;;;;;;10.32;6.05;;;3.40;99.90;;;;;;5128838;27;20140;-78
2024/01/14 10:34:20;;;;;;;10.30;6.68;;;3.50;99.90;;;;;;5130619;27;20023;-80
2024/01/14 10:36:46;;;;;;;9.07;5.97;;;3.60;99.90;;;;;;5152061;27;20010;-79
2024/01/14 10:39:12;;;;;;;8.75;6.30;;;3.70;99.90;;;;;;5151465;27;20459;-79
2024/01/14 10:41:40;;;;;;;9.18;5.68;;;3.70;99.90;;;;;;5142934;27;20025;-78
2024/01/14 10:44:06;;;;;;;11.00;6.10;;;3.80;99.90;;;;;;5129674;27;20519;-79
2024/01/14 10:46:35;;;;;;;9.73;6.03;;;3.80;99.90;;;;;;5133381;27;20107;-79
2024/01/14 10:49:08;;;;;;;10.35;5.70;;;3.80;99.90;;;;;;5115092;27;20023;-79
2024/01/14 10:51:40;;;;;;;8.77;5.40;;;3.80;99.90;;;;;;5133052;27;20483;-79
2024/01/14 10:54:22;;;;;;;8.75;5.40;;;3.80;99.90;;;;;;5133701;27;20057;-80
2024/01/14 10:56:57;;;;;;;8.53;5.63;;;3.80;99.90;;;;;;5115327;27;20041;-80
2024/01/14 10:59:27;;;;;;;7.80;5.63;;;3.80;99.90;;;;;;5112713;28;20035;-80
2024/01/14 11:01:57;;;;;;;8.20;5.55;;;3.90;99.90;;;;;;5104219;28;20008;-80
2024/01/14 11:04:23;;;;;;;6.72;4.68;;;3.80;99.90;;;;;;5100805;28;20093;-80
2024/01/14 11:06:55;;;;;;;5.85;4.45;;;3.90;99.90;;;;;;5100303;28;20416;-80
2024/01/14 11:09:21;;;;;;;6.97;4.95;;;3.90;99.90;;;;;;5114928;27;20143;-79
2024/01/14 11:12:03;;;;;;;8.20;5.00;;;3.80;99.90;;;;;;5113596;27;20034;-80
2024/01/14 11:14:43;;;;;;;9.45;5.68;;;3.90;99.90;;;;;;5091503;28;20461;-80
2024/01/14 11:17:31;;;;;;;8.30;5.25;;;3.90;99.90;;;;;;5092336;28;20023;-80
2024/01/14 11:19:57;;;;;;;8.45;5.20;;;4.00;99.90;;;;;;5092633;28;20121;-79
2024/01/14 11:22:26;;;;;;;7.10;4.60;;;4.00;99.90;;;;;;5091911;28;20360;-80
2024/01/14 11:24:52;;;;;;;7.80;5.63;;;4.00;99.90;;;;;;5091713;28;20063;-79
2024/01/14 11:27:18;;;;;;;5.90;4.88;;;4.00;99.90;;;;;;5090612;28;20085;-80
2024/01/14 11:29:44;;;;;;;9.88;5.30;;;4.10;99.90;;;;;;5091249;28;20099;-79
2024/01/14 11:32:11;;;;;;;8.25;4.90;;;4.10;99.90;;;;;;5089503;28;20464;-80
2024/01/14 11:34:59;;;;;;;7.88;5.47;;;4.10;99.90;;;;;;5089421;28;20412;-80
2024/01/14 11:37:38;;;;;;;7.32;5.45;;;4.10;99.90;;;;;;5090735;28;20020;-80
2024/01/14 11:40:06;;;;;;;6.28;4.53;;;4.20;99.90;;;;;;5090681;28;20059;-80
2024/01/14 11:43:04;;;;;;;8.65;4.60;;;4.20;99.90;;;;;;5090594;28;20059;-78
2024/01/14 11:45:29;;;;;;;4.97;4.25;;;4.30;99.90;;;;;;5089800;28;20475;-80
2024/01/14 11:47:56;;;;;;;6.28;4.28;;;4.30;99.90;;;;;;5090672;28;20050;-79
2024/01/14 11:50:24;;;;;;;7.10;4.78;;;4.30;99.90;;;;;;5089924;28;20051;-79
2024/01/14 11:52:52;;;;;;;6.75;4.95;;;4.30;99.90;;;;;;5090497;28;20028;-79
2024/01/14 11:55:40;;;;;;;7.45;4.32;;;4.20;99.90;;;;;;5090156;28;20034;-79
2024/01/14 11:58:15;;;;;;;6.20;4.38;;;4.20;99.90;;;;;;5101800;28;20100;-79
2024/01/14 12:00:42;;;;;;;5.90;4.43;;;4.10;99.90;;;;;;5091995;28;20036;-79
2024/01/14 12:03:13;;;;;;;6.47;4.60;;;4.20;99.90;;;;;;5110617;28;20457;-79
2024/01/14 12:05:40;;;;;;;7.30;4.55;;;4.10;99.90;;;;;;5091670;28;20473;-80
2024/01/14 12:08:07;;;;;;;10.77;4.75;;;4.20;99.90;;;;;;5111258;28;20016;-80
2024/01/14 12:10:33;;;;;;;6.95;4.55;;;4.20;99.90;;;;;;5110440;28;20147;-80
2024/01/14 12:13:01;;;;;;;7.97;4.38;;;4.20;99.90;;;;;;5111021;28;20015;-80
2024/01/14 12:15:28;;;;;;;6.90;4.13;;;4.20;99.90;;;;;;5110540;28;20035;-78
2024/01/14 12:17:58;;;;;;;6.05;4.55;;;4.20;99.90;;;;;;5111012;28;20043;-80
2024/01/14 12:20:25;;;;;;;6.45;4.45;;;4.30;99.90;;;;;;5110339;28;20211;-79
2024/01/14 12:22:58;;;;;;;8.07;4.88;;;4.30;99.90;;;;;;5110988;28;20019;-79
2024/01/14 12:25:24;;;;;;;7.53;4.63;;;4.30;99.90;;;;;;5111015;28;20030;-79
2024/01/14 12:27:50;;;;;;;7.88;4.70;;;4.20;99.90;;;;;;5091839;28;20020;-78
2024/01/14 12:30:34;;;;;;;7.10;4.05;;;4.40;99.90;;;;;;5093631;28;20018;-80
2024/01/14 12:33:04;;;;;;;8.70;6.88;;;4.30;99.90;;;;;;5121757;28;20080;-79
2024/01/14 12:35:33;;;;;;;10.40;6.35;;;4.50;99.90;;;;;;5118198;28;20027;-81
2024/01/14 12:37:59;;;;;;;9.73;5.80;;;4.50;99.90;;;;;;5129378;27;20037;-83
2024/01/14 12:40:26;;;;;;;8.02;5.68;;;4.50;99.90;;;;;;5126790;27;20019;-79
2024/01/14 12:42:52;;;;;;;7.95;5.35;;;4.60;99.90;;;;;;5131322;28;20026;-78